sensor_id;sensor_type;location;lat;lon;timestamp;P1;durP1;ratioP1;P2;durP2;ratioP2
10410;SDS011;5251;52.112;8.606;2023-10-19T00:00:55;9.95;;;7.65;;
10410;SDS011;5251;52.112;8.606;2023-10-19T00:03:21;10.85;;;7.97;;
10410;SDS011;5251;52.112;8.606;2023-10-19T00:05:48;8.45;;;7.22;;
10410;SDS011;5251;52.112;8.606;2023-10-19T00:08:14;9.07;;;8.02;;
10410;SDS011;5251;52.112;8.606;2023-10-19T00:10:43;8.85;;;7.93;;
10410;SDS011;5251;52.112;8.606;2023-10-19T00:13:10;9.82;;;7.88;;
10410;SDS011;5251;52.112;8.606;2023-10-19T00:15:41;9.93;;;8.27;;
10410;SDS011;5251;52.112;8.606;2023-10-19T00:18:15;9.98;;;8.02;;
10410;SDS011;5251;52.112;8.606;2023-10-19T00:20:41;10.75;;;8.80;;
10410;SDS011;5251;52.112;8.606;2023-10-19T00:23:10;11.65;;;8.68;;
10410;SDS011;5251;52.112;8.606;2023-10-19T00:25:43;11.35;;;8.73;;
10410;SDS011;5251;52.112;8.606;2023-10-19T00:28:16;11.02;;;9.20;;
10410;SDS011;5251;52.112;8.606;2023-10-19T00:30:43;11.07;;;8.60;;
10410;SDS011;5251;52.112;8.606;2023-10-19T00:33:10;10.43;;;8.55;;
10410;SDS011;5251;52.112;8.606;2023-10-19T00:35:43;11.75;;;9.15;;
10410;SDS011;5251;52.112;8.606;2023-10-19T00:38:15;10.18;;;8.15;;
10410;SDS011;5251;52.112;8.606;2023-10-19T00:40:55;10.27;;;8.35;;
10410;SDS011;5251;52.112;8.606;2023-10-19T00:43:28;10.48;;;8.50;;
10410;SDS011;5251;52.112;8.606;2023-10-19T00:45:57;10.18;;;8.82;;
10410;SDS011;5251;52.112;8.606;2023-10-19T00:48:26;10.85;;;9.18;;
10410;SDS011;5251;52.112;8.606;2023-10-19T00:50:53;11.50;;;8.93;;
10410;SDS011;5251;52.112;8.606;2023-10-19T00:53:33;10.38;;;8.57;;
10410;SDS011;5251;52.112;8.606;2023-10-19T00:56:00;11.95;;;9.10;;
10410;SDS011;5251;52.112;8.606;2023-10-19T00:58:30;10.50;;;8.77;;
10410;SDS011;5251;52.112;8.606;2023-10-19T01:00:56;10.40;;;8.48;;
10410;SDS011;5251;52.112;8.606;2023-10-19T01:03:24;11.27;;;7.93;;
10410;SDS011;5251;52.112;8.606;2023-10-19T01:05:57;11.25;;;8.82;;
10410;SDS011;5251;52.112;8.606;2023-10-19T01:08:23;12.52;;;8.98;;
10410;SDS011;5251;52.112;8.606;2023-10-19T01:10:51;10.18;;;8.20;;
10410;SDS011;5251;52.112;8.606;2023-10-19T01:13:18;11.13;;;9.50;;
10410;SDS011;5251;52.112;8.606;2023-10-19T01:15:51;9.98;;;8.80;;
10410;SDS011;5251;52.112;8.606;2023-10-19T01:18:18;11.68;;;9.45;;
10410;SDS011;5251;52.112;8.606;2023-10-19T01:20:44;11.02;;;9.40;;
10410;SDS011;5251;52.112;8.606;2023-10-19T01:23:15;11.48;;;8.77;;
10410;SDS011;5251;52.112;8.606;2023-10-19T01:25:51;11.52;;;9.18;;
10410;SDS011;5251;52.112;8.606;2023-10-19T01:28:30;10.45;;;8.80;;
10410;SDS011;5251;52.112;8.606;2023-10-19T01:33:58;9.85;;;8.45;;
10410;SDS011;5251;52.112;8.606;2023-10-19T01:36:26;10.45;;;9.35;;
10410;SDS011;5251;52.112;8.606;2023-10-19T01:38:53;12.27;;;9.73;;
10410;SDS011;5251;52.112;8.606;2023-10-19T01:41:21;12.70;;;9.77;;
10410;SDS011;5251;52.112;8.606;2023-10-19T01:43:48;10.70;;;9.07;;
10410;SDS011;5251;52.112;8.606;2023-10-19T01:46:16;11.23;;;9.13;;
10410;SDS011;5251;52.112;8.606;2023-10-19T01:49:02;10.63;;;9.43;;
10410;SDS011;5251;52.112;8.606;2023-10-19T01:51:29;10.40;;;8.80;;
10410;SDS011;5251;52.112;8.606;2023-10-19T01:53:57;11.45;;;9.68;;
10410;SDS011;5251;52.112;8.606;2023-10-19T01:56:25;10.70;;;9.05;;
10410;SDS011;5251;52.112;8.606;2023-10-19T01:58:51;13.75;;;10.27;;
10410;SDS011;5251;52.112;8.606;2023-10-19T02:01:17;12.35;;;9.10;;
10410;SDS011;5251;52.112;8.606;2023-10-19T02:03:52;10.93;;;9.52;;
10410;SDS011;5251;52.112;8.606;2023-10-19T02:06:25;12.98;;;9.65;;
10410;SDS011;5251;52.112;8.606;2023-10-19T02:09:04;10.60;;;8.80;;
10410;SDS011;5251;52.112;8.606;2023-10-19T02:11:42;11.02;;;8.93;;
10410;SDS011;5251;52.112;8.606;2023-10-19T02:14:12;11.52;;;9.77;;
10410;SDS011;5251;52.112;8.606;2023-10-19T02:16:41;10.18;;;9.00;;
10410;SDS011;5251;52.112;8.606;2023-10-19T02:19:08;11.05;;;9.10;;
10410;SDS011;5251;52.112;8.606;2023-10-19T02:21:37;11.75;;;9.70;;
10410;SDS011;5251;52.112;8.606;2023-10-19T02:24:06;11.43;;;9.45;;
10410;SDS011;5251;52.112;8.606;2023-10-19T02:26:32;9.75;;;8.70;;
10410;SDS011;5251;52.112;8.606;2023-10-19T02:28:58;11.10;;;9.05;;
10410;SDS011;5251;52.112;8.606;2023-10-19T02:31:24;12.50;;;9.63;;
10410;SDS011;5251;52.112;8.606;2023-10-19T02:33:50;12.63;;;9.90;;
10410;SDS011;5251;52.112;8.606;2023-10-19T02:36:20;10.35;;;9.02;;
10410;SDS011;5251;52.112;8.606;2023-10-19T02:38:46;11.73;;;9.75;;
10410;SDS011;5251;52.112;8.606;2023-10-19T02:41:16;9.90;;;8.65;;
10410;SDS011;5251;52.112;8.606;2023-10-19T02:43:42;11.52;;;9.18;;
10410;SDS011;5251;52.112;8.606;2023-10-19T02:46:13;9.13;;;8.07;;
10410;SDS011;5251;52.112;8.606;2023-10-19T02:48:39;9.27;;;7.95;;
10410;SDS011;5251;52.112;8.606;2023-10-19T02:51:12;9.70;;;8.30;;
10410;SDS011;5251;52.112;8.606;2023-10-19T02:53:41;9.45;;;7.97;;
10410;SDS011;5251;52.112;8.606;2023-10-19T02:56:13;9.38;;;8.05;;
10410;SDS011;5251;52.112;8.606;2023-10-19T02:58:44;8.20;;;7.30;;
10410;SDS011;5251;52.112;8.606;2023-10-19T03:01:23;9.38;;;8.10;;
10410;SDS011;5251;52.112;8.606;2023-10-19T03:03:52;8.63;;;7.57;;
10410;SDS011;5251;52.112;8.606;2023-10-19T03:06:22;8.45;;;7.50;;
10410;SDS011;5251;52.112;8.606;2023-10-19T03:08:48;8.00;;;7.10;;
10410;SDS011;5251;52.112;8.606;2023-10-19T03:11:23;8.07;;;7.28;;
10410;SDS011;5251;52.112;8.606;2023-10-19T03:13:49;8.05;;;7.25;;
10410;SDS011;5251;52.112;8.606;2023-10-19T03:16:17;7.45;;;6.68;;
10410;SDS011;5251;52.112;8.606;2023-10-19T03:18:42;7.80;;;6.80;;
10410;SDS011;5251;52.112;8.606;2023-10-19T03:21:08;7.38;;;6.68;;
10410;SDS011;5251;52.112;8.606;2023-10-19T03:23:36;6.85;;;6.15;;
10410;SDS011;5251;52.112;8.606;2023-10-19T03:26:03;8.50;;;6.47;;
10410;SDS011;5251;52.112;8.606;2023-10-19T03:28:47;7.45;;;6.32;;
10410;SDS011;5251;52.112;8.606;2023-10-19T03:31:13;6.40;;;5.80;;
10410;SDS011;5251;52.112;8.606;2023-10-19T03:33:43;6.32;;;5.72;;
10410;SDS011;5251;52.112;8.606;2023-10-19T03:36:09;6.10;;;5.50;;
10410;SDS011;5251;52.112;8.606;2023-10-19T03:38:38;6.18;;;5.25;;
10410;SDS011;5251;52.112;8.606;2023-10-19T03:41:05;6.20;;;5.60;;
10410;SDS011;5251;52.112;8.606;2023-10-19T03:43:33;5.80;;;5.20;;
10410;SDS011;5251;52.112;8.606;2023-10-19T03:46:01;6.03;;;5.20;;
10410;SDS011;5251;52.112;8.606;2023-10-19T03:48:31;5.85;;;5.18;;
10410;SDS011;5251;52.112;8.606;2023-10-19T03:51:02;5.75;;;4.97;;
10410;SDS011;5251;52.112;8.606;2023-10-19T03:53:28;5.63;;;5.03;;
10410;SDS011;5251;52.112;8.606;2023-10-19T03:55:55;5.07;;;4.57;;
10410;SDS011;5251;52.112;8.606;2023-10-19T03:58:21;4.82;;;4.32;;
10410;SDS011;5251;52.112;8.606;2023-10-19T04:00:47;4.93;;;4.45;;
10410;SDS011;5251;52.112;8.606;2023-10-19T04:03:16;4.50;;;4.10;;
10410;SDS011;5251;52.112;8.606;2023-10-19T04:05:49;4.43;;;4.03;;
10410;SDS011;5251;52.112;8.606;2023-10-19T04:08:16;4.85;;;4.30;;
10410;SDS011;5251;52.112;8.606;2023-10-19T04:10:46;5.85;;;4.30;;
10410;SDS011;5251;52.112;8.606;2023-10-19T04:13:31;4.78;;;4.28;;
10410;SDS011;5251;52.112;8.606;2023-10-19T04:15:57;5.75;;;4.22;;
10410;SDS011;5251;52.112;8.606;2023-10-19T04:18:22;4.88;;;4.03;;
10410;SDS011;5251;52.112;8.606;2023-10-19T04:20:50;4.60;;;4.20;;
10410;SDS011;5251;52.112;8.606;2023-10-19T04:23:19;4.63;;;4.05;;
10410;SDS011;5251;52.112;8.606;2023-10-19T04:25:51;4.65;;;4.25;;
10410;SDS011;5251;52.112;8.606;2023-10-19T04:28:18;4.90;;;4.40;;
10410;SDS011;5251;52.112;8.606;2023-10-19T04:30:50;5.72;;;4.60;;
10410;SDS011;5251;52.112;8.606;2023-10-19T04:33:16;4.43;;;3.92;;
10410;SDS011;5251;52.112;8.606;2023-10-19T04:35:43;4.47;;;4.07;;
10410;SDS011;5251;52.112;8.606;2023-10-19T04:38:10;4.40;;;4.00;;
10410;SDS011;5251;52.112;8.606;2023-10-19T04:40:36;4.82;;;4.30;;
10410;SDS011;5251;52.112;8.606;2023-10-19T04:43:02;4.95;;;4.32;;
10410;SDS011;5251;52.112;8.606;2023-10-19T04:45:31;4.85;;;4.45;;
10410;SDS011;5251;52.112;8.606;2023-10-19T04:47:56;4.40;;;4.00;;
10410;SDS011;5251;52.112;8.606;2023-10-19T04:50:22;4.78;;;4.32;;
10410;SDS011;5251;52.112;8.606;2023-10-19T04:52:48;4.60;;;4.05;;
10410;SDS011;5251;52.112;8.606;2023-10-19T04:55:13;4.63;;;4.22;;
10410;SDS011;5251;52.112;8.606;2023-10-19T04:57:39;5.65;;;4.50;;
10410;SDS011;5251;52.112;8.606;2023-10-19T05:00:04;4.70;;;4.20;;
10410;SDS011;5251;52.112;8.606;2023-10-19T05:02:30;5.10;;;4.60;;
10410;SDS011;5251;52.112;8.606;2023-10-19T05:04:56;4.85;;;4.35;;
10410;SDS011;5251;52.112;8.606;2023-10-19T05:07:21;5.00;;;4.45;;
10410;SDS011;5251;52.112;8.606;2023-10-19T05:09:47;5.28;;;4.63;;
10410;SDS011;5251;52.112;8.606;2023-10-19T05:12:16;7.10;;;4.90;;
10410;SDS011;5251;52.112;8.606;2023-10-19T05:14:42;4.80;;;4.38;;
10410;SDS011;5251;52.112;8.606;2023-10-19T05:17:08;4.90;;;4.40;;
10410;SDS011;5251;52.112;8.606;2023-10-19T05:19:37;5.50;;;5.00;;
10410;SDS011;5251;52.112;8.606;2023-10-19T05:22:04;5.10;;;4.60;;
10410;SDS011;5251;52.112;8.606;2023-10-19T05:24:31;5.30;;;4.80;;
10410;SDS011;5251;52.112;8.606;2023-10-19T05:26:57;5.40;;;4.80;;
10410;SDS011;5251;52.112;8.606;2023-10-19T05:29:23;5.55;;;4.70;;
10410;SDS011;5251;52.112;8.606;2023-10-19T05:31:50;5.32;;;4.82;;
10410;SDS011;5251;52.112;8.606;2023-10-19T05:34:19;5.65;;;5.10;;
10410;SDS011;5251;52.112;8.606;2023-10-19T05:36:45;5.30;;;4.80;;
10410;SDS011;5251;52.112;8.606;2023-10-19T05:39:13;5.82;;;5.22;;
10410;SDS011;5251;52.112;8.606;2023-10-19T05:41:42;6.07;;;5.40;;
10410;SDS011;5251;52.112;8.606;2023-10-19T05:44:07;5.90;;;5.30;;
10410;SDS011;5251;52.112;8.606;2023-10-19T05:46:33;5.75;;;5.20;;
10410;SDS011;5251;52.112;8.606;2023-10-19T05:48:59;7.93;;;5.50;;
10410;SDS011;5251;52.112;8.606;2023-10-19T05:51:26;5.57;;;4.93;;
10410;SDS011;5251;52.112;8.606;2023-10-19T05:53:52;6.05;;;5.45;;
10410;SDS011;5251;52.112;8.606;2023-10-19T05:56:19;6.47;;;5.78;;
10410;SDS011;5251;52.112;8.606;2023-10-19T05:58:46;7.95;;;6.35;;
10410;SDS011;5251;52.112;8.606;2023-10-19T06:01:15;6.90;;;6.18;;
10410;SDS011;5251;52.112;8.606;2023-10-19T06:03:42;6.90;;;6.20;;
10410;SDS011;5251;52.112;8.606;2023-10-19T06:06:08;6.75;;;6.05;;
10410;SDS011;5251;52.112;8.606;2023-10-19T06:08:33;6.72;;;6.00;;
10410;SDS011;5251;52.112;8.606;2023-10-19T06:10:59;7.78;;;6.63;;
10410;SDS011;5251;52.112;8.606;2023-10-19T06:13:25;7.68;;;6.78;;
10410;SDS011;5251;52.112;8.606;2023-10-19T06:15:51;7.38;;;6.45;;
10410;SDS011;5251;52.112;8.606;2023-10-19T06:18:17;7.30;;;6.60;;
10410;SDS011;5251;52.112;8.606;2023-10-19T06:20:45;9.10;;;6.53;;
10410;SDS011;5251;52.112;8.606;2023-10-19T06:23:13;9.60;;;7.18;;
10410;SDS011;5251;52.112;8.606;2023-10-19T06:25:38;7.95;;;6.80;;
10410;SDS011;5251;52.112;8.606;2023-10-19T06:28:04;9.23;;;7.50;;
10410;SDS011;5251;52.112;8.606;2023-10-19T06:30:30;7.15;;;6.45;;
10410;SDS011;5251;52.112;8.606;2023-10-19T06:32:57;8.05;;;7.10;;
10410;SDS011;5251;52.112;8.606;2023-10-19T06:35:27;8.07;;;6.45;;
10410;SDS011;5251;52.112;8.606;2023-10-19T06:37:56;9.18;;;7.07;;
10410;SDS011;5251;52.112;8.606;2023-10-19T06:40:24;7.60;;;6.68;;
10410;SDS011;5251;52.112;8.606;2023-10-19T06:42:51;9.73;;;6.78;;
10410;SDS011;5251;52.112;8.606;2023-10-19T06:45:20;8.57;;;7.38;;
10410;SDS011;5251;52.112;8.606;2023-10-19T06:47:47;10.02;;;7.13;;
10410;SDS011;5251;52.112;8.606;2023-10-19T06:50:15;10.50;;;7.45;;
10410;SDS011;5251;52.112;8.606;2023-10-19T06:52:42;9.85;;;7.80;;
10410;SDS011;5251;52.112;8.606;2023-10-19T06:55:09;11.25;;;7.97;;
10410;SDS011;5251;52.112;8.606;2023-10-19T06:57:41;8.73;;;7.63;;
10410;SDS011;5251;52.112;8.606;2023-10-19T07:00:09;7.72;;;6.93;;
10410;SDS011;5251;52.112;8.606;2023-10-19T07:02:44;8.77;;;6.85;;
10410;SDS011;5251;52.112;8.606;2023-10-19T07:05:14;9.77;;;7.13;;
10410;SDS011;5251;52.112;8.606;2023-10-19T07:07:43;8.02;;;7.00;;
10410;SDS011;5251;52.112;8.606;2023-10-19T07:10:10;7.45;;;6.60;;
10410;SDS011;5251;52.112;8.606;2023-10-19T07:12:38;8.93;;;7.07;;
10410;SDS011;5251;52.112;8.606;2023-10-19T07:15:05;7.82;;;6.57;;
10410;SDS011;5251;52.112;8.606;2023-10-19T07:17:33;8.18;;;6.70;;
10410;SDS011;5251;52.112;8.606;2023-10-19T07:20:02;7.97;;;6.95;;
10410;SDS011;5251;52.112;8.606;2023-10-19T07:22:31;8.52;;;6.85;;
10410;SDS011;5251;52.112;8.606;2023-10-19T07:25:04;8.35;;;6.95;;
10410;SDS011;5251;52.112;8.606;2023-10-19T07:27:31;34.72;;;24.15;;
10410;SDS011;5251;52.112;8.606;2023-10-19T07:29:57;17.85;;;14.38;;
10410;SDS011;5251;52.112;8.606;2023-10-19T07:32:24;12.45;;;9.98;;
10410;SDS011;5251;52.112;8.606;2023-10-19T07:34:49;8.50;;;7.00;;
10410;SDS011;5251;52.112;8.606;2023-10-19T07:37:15;8.15;;;6.80;;
10410;SDS011;5251;52.112;8.606;2023-10-19T07:39:47;7.75;;;6.13;;
10410;SDS011;5251;52.112;8.606;2023-10-19T07:42:14;6.82;;;6.03;;
10410;SDS011;5251;52.112;8.606;2023-10-19T07:44:39;7.55;;;6.13;;
10410;SDS011;5251;52.112;8.606;2023-10-19T07:47:05;8.48;;;6.32;;
10410;SDS011;5251;52.112;8.606;2023-10-19T07:49:35;7.35;;;6.53;;
10410;SDS011;5251;52.112;8.606;2023-10-19T07:52:03;7.63;;;6.28;;
10410;SDS011;5251;52.112;8.606;2023-10-19T07:54:31;8.70;;;7.80;;
10410;SDS011;5251;52.112;8.606;2023-10-19T07:57:01;7.45;;;6.72;;
10410;SDS011;5251;52.112;8.606;2023-10-19T07:59:32;7.00;;;6.30;;
10410;SDS011;5251;52.112;8.606;2023-10-19T08:01:59;7.43;;;6.47;;
10410;SDS011;5251;52.112;8.606;2023-10-19T08:04:28;7.10;;;6.40;;
10410;SDS011;5251;52.112;8.606;2023-10-19T08:06:54;7.30;;;6.00;;
10410;SDS011;5251;52.112;8.606;2023-10-19T08:09:20;7.80;;;6.60;;
10410;SDS011;5251;52.112;8.606;2023-10-19T08:11:51;7.47;;;6.32;;
10410;SDS011;5251;52.112;8.606;2023-10-19T08:14:21;7.25;;;6.28;;
10410;SDS011;5251;52.112;8.606;2023-10-19T08:16:49;5.90;;;5.28;;
10410;SDS011;5251;52.112;8.606;2023-10-19T08:19:15;7.30;;;6.03;;
10410;SDS011;5251;52.112;8.606;2023-10-19T08:21:41;7.20;;;5.93;;
10410;SDS011;5251;52.112;8.606;2023-10-19T08:24:07;6.47;;;5.75;;
10410;SDS011;5251;52.112;8.606;2023-10-19T08:26:38;5.97;;;5.20;;
10410;SDS011;5251;52.112;8.606;2023-10-19T08:29:04;6.97;;;5.72;;
10410;SDS011;5251;52.112;8.606;2023-10-19T08:31:37;7.28;;;5.60;;
10410;SDS011;5251;52.112;8.606;2023-10-19T08:34:05;6.28;;;5.00;;
10410;SDS011;5251;52.112;8.606;2023-10-19T08:36:30;7.03;;;6.10;;
10410;SDS011;5251;52.112;8.606;2023-10-19T08:38:56;5.65;;;5.13;;
10410;SDS011;5251;52.112;8.606;2023-10-19T08:41:22;5.85;;;5.20;;
10410;SDS011;5251;52.112;8.606;2023-10-19T08:43:48;5.20;;;4.70;;
10410;SDS011;5251;52.112;8.606;2023-10-19T08:46:15;6.13;;;5.53;;
10410;SDS011;5251;52.112;8.606;2023-10-19T08:48:41;5.63;;;4.93;;
10410;SDS011;5251;52.112;8.606;2023-10-19T08:51:10;5.97;;;4.82;;
10410;SDS011;5251;52.112;8.606;2023-10-19T08:53:39;7.20;;;5.28;;
10410;SDS011;5251;52.112;8.606;2023-10-19T08:56:06;5.45;;;4.95;;
10410;SDS011;5251;52.112;8.606;2023-10-19T08:58:32;5.65;;;5.07;;
10410;SDS011;5251;52.112;8.606;2023-10-19T09:00:58;5.90;;;5.30;;
10410;SDS011;5251;52.112;8.606;2023-10-19T09:03:31;5.32;;;4.82;;
10410;SDS011;5251;52.112;8.606;2023-10-19T09:06:01;5.47;;;4.97;;
10410;SDS011;5251;52.112;8.606;2023-10-19T09:08:27;5.50;;;4.45;;
10410;SDS011;5251;52.112;8.606;2023-10-19T09:11:06;6.97;;;4.82;;
10410;SDS011;5251;52.112;8.606;2023-10-19T09:13:48;6.57;;;4.38;;
10410;SDS011;5251;52.112;8.606;2023-10-19T09:16:18;4.60;;;4.10;;
10410;SDS011;5251;52.112;8.606;2023-10-19T09:18:51;10.25;;;9.00;;
10410;SDS011;5251;52.112;8.606;2023-10-19T09:21:17;9.93;;;7.70;;
10410;SDS011;5251;52.112;8.606;2023-10-19T09:23:50;6.03;;;5.10;;
10410;SDS011;5251;52.112;8.606;2023-10-19T09:26:17;5.10;;;4.60;;
10410;SDS011;5251;52.112;8.606;2023-10-19T09:28:46;4.80;;;4.30;;
10410;SDS011;5251;52.112;8.606;2023-10-19T09:31:16;5.15;;;4.32;;
10410;SDS011;5251;52.112;8.606;2023-10-19T09:33:43;5.32;;;4.60;;
10410;SDS011;5251;52.112;8.606;2023-10-19T09:36:10;5.80;;;4.35;;
10410;SDS011;5251;52.112;8.606;2023-10-19T09:38:46;5.25;;;4.10;;
10410;SDS011;5251;52.112;8.606;2023-10-19T09:41:19;4.10;;;3.65;;
10410;SDS011;5251;52.112;8.606;2023-10-19T09:43:47;5.40;;;4.35;;
10410;SDS011;5251;52.112;8.606;2023-10-19T09:46:20;4.30;;;3.88;;
10410;SDS011;5251;52.112;8.606;2023-10-19T09:48:51;4.20;;;3.80;;
10410;SDS011;5251;52.112;8.606;2023-10-19T09:51:17;4.22;;;3.83;;
10410;SDS011;5251;52.112;8.606;2023-10-19T09:53:45;4.35;;;3.95;;
10410;SDS011;5251;52.112;8.606;2023-10-19T09:56:19;4.53;;;3.70;;
10410;SDS011;5251;52.112;8.606;2023-10-19T09:58:50;6.05;;;4.15;;
10410;SDS011;5251;52.112;8.606;2023-10-19T10:01:19;4.10;;;3.70;;
10410;SDS011;5251;52.112;8.606;2023-10-19T10:03:53;3.67;;;3.38;;
10410;SDS011;5251;52.112;8.606;2023-10-19T10:08:55;4.30;;;3.90;;
10410;SDS011;5251;52.112;8.606;2023-10-19T10:11:25;3.88;;;3.47;;
10410;SDS011;5251;52.112;8.606;2023-10-19T10:13:52;3.78;;;3.38;;
10410;SDS011;5251;52.112;8.606;2023-10-19T10:16:20;4.20;;;3.38;;
10410;SDS011;5251;52.112;8.606;2023-10-19T10:18:50;3.70;;;3.40;;
10410;SDS011;5251;52.112;8.606;2023-10-19T10:21:29;4.75;;;3.70;;
10410;SDS011;5251;52.112;8.606;2023-10-19T10:23:59;3.40;;;3.10;;
10410;SDS011;5251;52.112;8.606;2023-10-19T10:26:28;3.58;;;3.28;;
10410;SDS011;5251;52.112;8.606;2023-10-19T10:29:21;3.70;;;3.30;;
10410;SDS011;5251;52.112;8.606;2023-10-19T10:31:48;3.55;;;3.25;;
10410;SDS011;5251;52.112;8.606;2023-10-19T10:37:02;3.83;;;3.22;;
10410;SDS011;5251;52.112;8.606;2023-10-19T10:39:29;4.68;;;3.08;;
10410;SDS011;5251;52.112;8.606;2023-10-19T10:41:59;3.72;;;3.25;;
10410;SDS011;5251;52.112;8.606;2023-10-19T10:47:05;3.38;;;3.03;;
10410;SDS011;5251;52.112;8.606;2023-10-19T10:49:34;4.13;;;3.50;;
10410;SDS011;5251;52.112;8.606;2023-10-19T10:54:57;3.65;;;3.30;;
10410;SDS011;5251;52.112;8.606;2023-10-19T10:57:23;3.40;;;3.10;;
10410;SDS011;5251;52.112;8.606;2023-10-19T11:00:04;4.95;;;3.25;;
10410;SDS011;5251;52.112;8.606;2023-10-19T11:02:40;5.75;;;3.45;;
10410;SDS011;5251;52.112;8.606;2023-10-19T11:05:14;3.50;;;3.20;;
10410;SDS011;5251;52.112;8.606;2023-10-19T11:10:41;4.57;;;3.00;;
10410;SDS011;5251;52.112;8.606;2023-10-19T11:13:08;3.17;;;2.75;;
10410;SDS011;5251;52.112;8.606;2023-10-19T11:15:39;2.95;;;2.65;;
10410;SDS011;5251;52.112;8.606;2023-10-19T11:20:54;4.47;;;3.67;;
10410;SDS011;5251;52.112;8.606;2023-10-19T11:23:34;4.00;;;3.00;;
10410;SDS011;5251;52.112;8.606;2023-10-19T11:26:07;5.45;;;3.28;;
10410;SDS011;5251;52.112;8.606;2023-10-19T11:28:37;5.43;;;3.25;;
10410;SDS011;5251;52.112;8.606;2023-10-19T11:33:50;3.70;;;3.40;;
10410;SDS011;5251;52.112;8.606;2023-10-19T11:36:16;3.30;;;2.90;;
10410;SDS011;5251;52.112;8.606;2023-10-19T11:38:43;4.28;;;2.97;;
10410;SDS011;5251;52.112;8.606;2023-10-19T11:41:11;3.38;;;2.35;;
10410;SDS011;5251;52.112;8.606;2023-10-19T11:43:39;3.55;;;3.05;;
10410;SDS011;5251;52.112;8.606;2023-10-19T11:46:05;3.22;;;2.92;;
10410;SDS011;5251;52.112;8.606;2023-10-19T11:48:32;3.85;;;2.72;;
10410;SDS011;5251;52.112;8.606;2023-10-19T11:51:04;4.38;;;3.40;;
10410;SDS011;5251;52.112;8.606;2023-10-19T11:53:30;3.38;;;2.85;;
10410;SDS011;5251;52.112;8.606;2023-10-19T11:55:59;2.78;;;2.58;;
10410;SDS011;5251;52.112;8.606;2023-10-19T11:58:28;5.63;;;3.13;;
10410;SDS011;5251;52.112;8.606;2023-10-19T12:01:02;3.42;;;3.00;;
10410;SDS011;5251;52.112;8.606;2023-10-19T12:03:30;3.58;;;2.67;;
10410;SDS011;5251;52.112;8.606;2023-10-19T12:05:56;3.78;;;2.97;;
10410;SDS011;5251;52.112;8.606;2023-10-19T12:08:22;5.03;;;3.35;;
10410;SDS011;5251;52.112;8.606;2023-10-19T12:10:48;4.18;;;3.13;;
10410;SDS011;5251;52.112;8.606;2023-10-19T12:13:15;3.33;;;2.80;;
10410;SDS011;5251;52.112;8.606;2023-10-19T12:15:41;4.30;;;3.40;;
10410;SDS011;5251;52.112;8.606;2023-10-19T12:18:16;3.60;;;2.92;;
10410;SDS011;5251;52.112;8.606;2023-10-19T12:20:42;4.65;;;3.10;;
10410;SDS011;5251;52.112;8.606;2023-10-19T12:23:10;3.22;;;2.72;;
10410;SDS011;5251;52.112;8.606;2023-10-19T12:25:36;3.95;;;2.80;;
10410;SDS011;5251;52.112;8.606;2023-10-19T12:28:03;3.70;;;3.10;;
10410;SDS011;5251;52.112;8.606;2023-10-19T12:30:29;4.05;;;3.22;;
10410;SDS011;5251;52.112;8.606;2023-10-19T12:33:01;3.00;;;2.70;;
10410;SDS011;5251;52.112;8.606;2023-10-19T12:35:32;2.97;;;2.70;;
10410;SDS011;5251;52.112;8.606;2023-10-19T12:38:17;3.55;;;2.70;;
10410;SDS011;5251;52.112;8.606;2023-10-19T12:40:45;3.38;;;2.67;;
10410;SDS011;5251;52.112;8.606;2023-10-19T12:43:12;3.10;;;2.55;;
10410;SDS011;5251;52.112;8.606;2023-10-19T12:45:39;3.35;;;3.00;;
10410;SDS011;5251;52.112;8.606;2023-10-19T12:48:06;3.10;;;2.80;;
10410;SDS011;5251;52.112;8.606;2023-10-19T12:50:35;3.20;;;2.75;;
10410;SDS011;5251;52.112;8.606;2023-10-19T12:53:01;4.95;;;3.00;;
10410;SDS011;5251;52.112;8.606;2023-10-19T12:55:27;3.80;;;3.40;;
10410;SDS011;5251;52.112;8.606;2023-10-19T12:57:53;3.47;;;2.90;;
10410;SDS011;5251;52.112;8.606;2023-10-19T13:00:19;3.75;;;2.90;;
10410;SDS011;5251;52.112;8.606;2023-10-19T13:03:01;2.75;;;2.55;;
10410;SDS011;5251;52.112;8.606;2023-10-19T13:05:33;3.00;;;2.70;;
10410;SDS011;5251;52.112;8.606;2023-10-19T13:08:05;3.08;;;2.70;;
10410;SDS011;5251;52.112;8.606;2023-10-19T13:10:31;5.20;;;2.97;;
10410;SDS011;5251;52.112;8.606;2023-10-19T13:13:02;3.17;;;2.70;;
10410;SDS011;5251;52.112;8.606;2023-10-19T13:17:59;3.90;;;3.10;;
10410;SDS011;5251;52.112;8.606;2023-10-19T13:20:29;2.78;;;2.50;;
10410;SDS011;5251;52.112;8.606;2023-10-19T13:23:04;3.40;;;2.80;;
10410;SDS011;5251;52.112;8.606;2023-10-19T13:25:37;3.90;;;2.72;;
10410;SDS011;5251;52.112;8.606;2023-10-19T13:28:09;3.35;;;3.00;;
10410;SDS011;5251;52.112;8.606;2023-10-19T13:30:36;2.85;;;2.50;;
10410;SDS011;5251;52.112;8.606;2023-10-19T13:33:06;3.28;;;2.50;;
10410;SDS011;5251;52.112;8.606;2023-10-19T13:35:36;4.45;;;3.00;;
10410;SDS011;5251;52.112;8.606;2023-10-19T13:38:04;2.70;;;2.50;;
10410;SDS011;5251;52.112;8.606;2023-10-19T13:40:34;3.30;;;3.00;;
10410;SDS011;5251;52.112;8.606;2023-10-19T13:43:04;3.42;;;3.03;;
10410;SDS011;5251;52.112;8.606;2023-10-19T13:45:31;2.72;;;2.53;;
10410;SDS011;5251;52.112;8.606;2023-10-19T13:48:02;4.07;;;2.72;;
10410;SDS011;5251;52.112;8.606;2023-10-19T13:50:32;4.43;;;3.10;;
10410;SDS011;5251;52.112;8.606;2023-10-19T13:52:59;3.15;;;2.88;;
10410;SDS011;5251;52.112;8.606;2023-10-19T13:55:30;4.18;;;3.20;;
10410;SDS011;5251;52.112;8.606;2023-10-19T13:57:56;4.68;;;3.88;;
10410;SDS011;5251;52.112;8.606;2023-10-19T14:00:22;3.25;;;2.92;;
10410;SDS011;5251;52.112;8.606;2023-10-19T14:02:50;5.80;;;4.82;;
10410;SDS011;5251;52.112;8.606;2023-10-19T14:05:16;11.93;;;9.80;;
10410;SDS011;5251;52.112;8.606;2023-10-19T14:07:43;6.15;;;5.25;;
10410;SDS011;5251;52.112;8.606;2023-10-19T14:10:09;7.45;;;4.57;;
10410;SDS011;5251;52.112;8.606;2023-10-19T14:12:38;10.68;;;8.32;;
10410;SDS011;5251;52.112;8.606;2023-10-19T14:15:14;5.40;;;3.97;;
10410;SDS011;5251;52.112;8.606;2023-10-19T14:17:41;4.32;;;3.30;;
10410;SDS011;5251;52.112;8.606;2023-10-19T14:20:07;2.97;;;2.60;;
10410;SDS011;5251;52.112;8.606;2023-10-19T14:22:40;3.13;;;2.65;;
10410;SDS011;5251;52.112;8.606;2023-10-19T14:25:07;3.95;;;2.80;;
10410;SDS011;5251;52.112;8.606;2023-10-19T14:27:37;3.40;;;2.78;;
10410;SDS011;5251;52.112;8.606;2023-10-19T14:30:10;3.63;;;3.10;;
10410;SDS011;5251;52.112;8.606;2023-10-19T14:32:38;5.25;;;3.85;;
10410;SDS011;5251;52.112;8.606;2023-10-19T14:35:14;12.20;;;7.80;;
10410;SDS011;5251;52.112;8.606;2023-10-19T14:37:44;7.75;;;5.30;;
10410;SDS011;5251;52.112;8.606;2023-10-19T14:40:13;5.30;;;3.78;;
10410;SDS011;5251;52.112;8.606;2023-10-19T14:42:47;5.22;;;3.47;;
10410;SDS011;5251;52.112;8.606;2023-10-19T14:45:14;3.63;;;3.20;;
10410;SDS011;5251;52.112;8.606;2023-10-19T14:47:41;4.07;;;3.17;;
10410;SDS011;5251;52.112;8.606;2023-10-19T14:50:14;3.30;;;3.00;;
10410;SDS011;5251;52.112;8.606;2023-10-19T14:52:41;3.38;;;2.70;;
10410;SDS011;5251;52.112;8.606;2023-10-19T14:55:07;3.35;;;3.05;;
10410;SDS011;5251;52.112;8.606;2023-10-19T14:57:34;6.95;;;4.78;;
10410;SDS011;5251;52.112;8.606;2023-10-19T15:00:00;4.05;;;3.65;;
10410;SDS011;5251;52.112;8.606;2023-10-19T15:02:39;3.72;;;3.33;;
10410;SDS011;5251;52.112;8.606;2023-10-19T15:05:11;3.95;;;3.20;;
10410;SDS011;5251;52.112;8.606;2023-10-19T15:07:44;5.53;;;3.53;;
10410;SDS011;5251;52.112;8.606;2023-10-19T15:10:20;3.70;;;2.92;;
10410;SDS011;5251;52.112;8.606;2023-10-19T15:12:51;3.88;;;3.28;;
10410;SDS011;5251;52.112;8.606;2023-10-19T15:15:17;8.93;;;6.65;;
10410;SDS011;5251;52.112;8.606;2023-10-19T15:17:43;18.25;;;11.65;;
10410;SDS011;5251;52.112;8.606;2023-10-19T15:20:10;9.02;;;5.47;;
10410;SDS011;5251;52.112;8.606;2023-10-19T15:22:37;4.90;;;3.72;;
10410;SDS011;5251;52.112;8.606;2023-10-19T15:25:03;3.40;;;3.10;;
10410;SDS011;5251;52.112;8.606;2023-10-19T15:27:32;3.40;;;3.10;;
10410;SDS011;5251;52.112;8.606;2023-10-19T15:30:02;4.38;;;3.20;;
10410;SDS011;5251;52.112;8.606;2023-10-19T15:32:30;5.32;;;3.70;;